Time;durP1;ratioP1;P1;durP2;ratioP2;P2;SDS_P1;SDS_P2;PMS_P1;PMS_P2;Temp;Humidity;BMP_temperature;BMP_pressure;BME280_temperature;BME280_humidity;BME280_pressure;Samples;Min_cycle;Max_cycle;Signal;HPM_P1;HPM_P2
2021/09/26 00:00:47;;;;;;;;;;;15.20;99.90;;;;;;5108558;28;20040;-88
2021/09/26 00:03:14;;;;;;;;;;;15.20;99.90;;;;;;5107897;28;19988;-87
2021/09/26 00:05:40;;;;;;;;;;;15.20;99.90;;;;;;5108389;28;19942;-86
2021/09/26 00:08:07;;;;;;;;;;;15.20;99.90;;;;;;5107024;28;19987;-88
2021/09/26 00:10:33;;;;;;;;;;;15.10;99.90;;;;;;5104551;28;19964;-87
2021/09/26 00:16:04;;;;;;;;;;;15.10;99.90;;;;;;5097291;28;19943;-88
2021/09/26 00:18:31;;;;;;;;;;;15.10;99.90;;;;;;5100865;28;19972;-88
2021/09/26 00:20:57;;;;;;;;;;;15.10;99.90;;;;;;5100153;28;20366;-88
2021/09/26 00:23:25;;;;;;;;;;;15.10;99.90;;;;;;5100365;28;19941;-88
2021/09/26 00:25:52;;;;;;;;;;;15.00;99.90;;;;;;5100539;28;20363;-88
2021/09/26 00:28:19;;;;;;;;;;;15.00;99.90;;;;;;5100479;28;19940;-88
2021/09/26 00:30:45;;;;;;;;;;;15.00;99.90;;;;;;5101290;28;19965;-88
2021/09/26 00:33:13;;;;;;;;;;;15.00;99.90;;;;;;5101529;28;20311;-87
2021/09/26 00:35:40;;;;;;;;;;;15.00;99.90;;;;;;5102561;28;19941;-86
2021/09/26 00:38:08;;;;;;;;;;;15.00;99.90;;;;;;5101553;28;19970;-88
2021/09/26 00:40:35;;;;;;;;;;;14.90;99.90;;;;;;5100708;28;19964;-87
2021/09/26 00:43:01;;;;;;;;;;;14.90;99.90;;;;;;5101032;28;19938;-87
2021/09/26 00:45:28;;;;;;;;;;;14.90;99.90;;;;;;5100534;28;19945;-87
2021/09/26 00:47:54;;;;;;;;;;;15.00;99.90;;;;;;5100298;28;19939;-87
2021/09/26 00:50:23;;;;;;;;;;;15.00;99.90;;;;;;5100504;28;20391;-87
2021/09/26 00:52:49;;;;;;;;;;;15.00;99.90;;;;;;5100509;28;20028;-87
2021/09/26 00:55:16;;;;;;;;;;;15.10;99.90;;;;;;5100532;28;19967;-88
2021/09/26 00:57:43;;;;;;;;;;;15.20;99.90;;;;;;5100199;28;19940;-88
2021/09/26 01:00:12;;;;;;;;;;;15.20;99.90;;;;;;5099591;28;20456;-88
2021/09/26 01:02:39;;;;;;;;;;;15.20;99.90;;;;;;5100114;28;20053;-87
2021/09/26 01:05:07;;;;;;;;;;;15.20;99.90;;;;;;5101682;28;20399;-88
2021/09/26 01:07:40;;;;;;;;;;;15.20;99.90;;;;;;5103094;28;20354;-87
2021/09/26 01:10:08;;;;;;;;;;;15.20;99.90;;;;;;5099482;28;19963;-87
2021/09/26 01:12:37;;;;;;;;;;;15.20;99.90;;;;;;5115612;28;19949;-87
2021/09/26 01:15:07;;;;;;;;;;;15.10;99.90;;;;;;5119780;28;19929;-87
2021/09/26 01:17:36;;;;;;;;;;;15.10;99.90;;;;;;5120317;27;19964;-85
2021/09/26 01:20:30;;;;;;;;;;;15.00;99.90;;;;;;5103153;28;19955;-87
2021/09/26 01:23:12;;;;;;;;;;;15.10;99.90;;;;;;5118962;28;19971;-86
2021/09/26 01:25:58;;;;;;;;;;;15.10;99.90;;;;;;5120369;28;19931;-87
2021/09/26 01:28:32;;;;;;;;;;;15.10;99.90;;;;;;5119633;28;20001;-88
2021/09/26 01:31:01;;;;;;;;;;;15.20;99.90;;;;;;5114310;28;20013;-87
2021/09/26 01:33:29;;;;;;;;;;;15.10;99.90;;;;;;5109215;28;19942;-86
2021/09/26 01:35:57;;;;;;;;;;;15.10;99.90;;;;;;5120320;28;19927;-85
2021/09/26 01:38:27;;;;;;;;;;;15.00;99.90;;;;;;5115823;28;20334;-87
2021/09/26 01:40:57;;;;;;;;;;;15.10;99.90;;;;;;5103239;28;19956;-88
2021/09/26 01:43:28;;;;;;;;;;;15.10;99.90;;;;;;5099588;28;19946;-87
2021/09/26 01:45:56;;;;;;;;;;;15.10;99.90;;;;;;5100643;28;19948;-87
2021/09/26 01:48:29;;;;;;;;;;;15.20;99.90;;;;;;5100272;28;19963;-87
2021/09/26 01:50:58;;;;;;;;;;;15.20;99.90;;;;;;5102994;28;19959;-87
2021/09/26 01:53:25;;;;;;;;;;;15.20;99.90;;;;;;5103513;28;20355;-87
2021/09/26 01:55:53;;;;;;;;;;;15.20;99.90;;;;;;5102206;28;19945;-87
2021/09/26 01:58:21;;;;;;;;;;;15.20;99.90;;;;;;5101017;28;19965;-87
2021/09/26 02:00:48;;;;;;;;;;;15.20;99.90;;;;;;5102593;28;19956;-86
2021/09/26 02:03:15;;;;;;;;;;;15.10;99.90;;;;;;5103438;28;20333;-87
2021/09/26 02:05:43;;;;;;;;;;;15.10;99.90;;;;;;5104687;28;20388;-87
2021/09/26 02:08:10;;;;;;;;;;;15.10;99.90;;;;;;5103293;28;19941;-88
2021/09/26 02:10:37;;;;;;;;;;;15.20;99.90;;;;;;5100834;28;19959;-88
2021/09/26 02:13:05;;;;;;;;;;;15.20;99.90;;;;;;5105703;28;19967;-89
2021/09/26 02:15:32;;;;;;;;;;;15.10;99.90;;;;;;5101085;28;19959;-88
2021/09/26 02:17:59;;;;;;;;;;;14.60;99.90;;;;;;5099625;28;19942;-88
2021/09/26 02:20:26;;;;;;;;;;;15.10;99.90;;;;;;5099157;28;19952;-88
2021/09/26 02:22:54;;;;;;;;;;;15.10;99.90;;;;;;5104867;28;19953;-88
2021/09/26 02:25:21;;;;;;;;;;;15.20;99.90;;;;;;5100958;28;19945;-88
2021/09/26 02:27:48;;;;;;;;;;;15.20;99.90;;;;;;5099576;28;19943;-88
2021/09/26 02:30:15;;;;;;;;;;;15.10;99.90;;;;;;5110845;28;19989;-86
2021/09/26 02:32:41;;;;;;;;;;;15.10;99.90;;;;;;5119495;28;19927;-86
2021/09/26 02:35:09;;;;;;;;;;;15.10;99.90;;;;;;5119372;28;19927;-87
2021/09/26 02:37:35;;;;;;;;;;;15.10;99.90;;;;;;5119304;28;19955;-86
2021/09/26 02:40:04;;;;;;;;;;;15.10;99.90;;;;;;5118686;28;19955;-87
2021/09/26 02:42:33;;;;;;;;;;;15.20;99.90;;;;;;5113944;28;20012;-87
2021/09/26 02:45:02;;;;;;;;;;;15.20;99.90;;;;;;5104573;28;19949;-88
2021/09/26 02:47:30;;;;;;;;;;;15.00;99.90;;;;;;5114045;28;19941;-87
2021/09/26 02:49:57;;;;;;;;;;;15.00;99.90;;;;;;5116477;28;19962;-88
2021/09/26 02:52:24;;;;;;;;;;;15.00;99.90;;;;;;5105766;28;19944;-87
2021/09/26 02:54:51;;;;;;;;;;;15.00;99.90;;;;;;5103817;28;19945;-88
2021/09/26 02:57:19;;;;;;;;;;;15.10;99.90;;;;;;5103808;28;20429;-88
2021/09/26 02:59:46;;;;;;;;;;;15.10;99.90;;;;;;5103628;28;19966;-88
2021/09/26 03:02:12;;;;;;;;;;;15.20;99.90;;;;;;5102143;28;19962;-88
2021/09/26 03:04:41;;;;;;;;;;;15.20;99.90;;;;;;5102439;28;20019;-88
2021/09/26 03:07:08;;;;;;;;;;;15.20;99.90;;;;;;5118302;28;19933;-87
2021/09/26 03:09:34;;;;;;;;;;;15.20;99.90;;;;;;5123328;28;19954;-84
2021/09/26 03:12:01;;;;;;;;;;;15.20;99.90;;;;;;5113885;28;20009;-88
2021/09/26 03:14:29;;;;;;;;;;;15.30;99.90;;;;;;5116260;28;19933;-88
2021/09/26 03:16:55;;;;;;;;;;;15.20;99.90;;;;;;5122390;28;19943;-87
2021/09/26 03:19:21;;;;;;;;;;;15.30;99.90;;;;;;5116443;27;19988;-88
2021/09/26 03:21:48;;;;;;;;;;;15.30;99.90;;;;;;5102042;28;19959;-87
2021/09/26 03:24:14;;;;;;;;;;;15.20;99.90;;;;;;5104032;28;19989;-88
2021/09/26 03:26:41;;;;;;;;;;;15.20;99.90;;;;;;5109041;28;19995;-88
2021/09/26 03:29:07;;;;;;;;;;;15.20;99.90;;;;;;5106286;28;19965;-87
2021/09/26 03:31:35;;;;;;;;;;;15.30;99.90;;;;;;5109498;28;19958;-87
2021/09/26 03:34:01;;;;;;;;;;;15.20;99.90;;;;;;5103128;28;19986;-88
2021/09/26 03:36:28;;;;;;;;;;;15.20;99.90;;;;;;5104426;28;19990;-86
2021/09/26 03:38:57;;;;;;;;;;;15.20;99.90;;;;;;5118346;28;19946;-86
2021/09/26 03:41:23;;;;;;;;;;;15.30;99.90;;;;;;5121946;28;19956;-85
2021/09/26 03:43:50;;;;;;;;;;;15.20;99.90;;;;;;5122740;28;19959;-86
2021/09/26 03:46:16;;;;;;;;;;;15.20;99.90;;;;;;5115987;28;19944;-87
2021/09/26 03:48:44;;;;;;;;;;;15.20;99.90;;;;;;5105100;28;19939;-88
2021/09/26 03:51:10;;;;;;;;;;;15.20;99.90;;;;;;5103628;28;19955;-89
2021/09/26 03:53:37;;;;;;;;;;;15.20;99.90;;;;;;5102443;28;19941;-88
2021/09/26 03:56:03;;;;;;;;;;;15.20;99.90;;;;;;5103092;28;19941;-88
2021/09/26 03:58:30;;;;;;;;;;;15.20;99.90;;;;;;5102694;28;19942;-88
2021/09/26 04:00:58;;;;;;;;;;;15.20;99.90;;;;;;5102053;28;19958;-88
2021/09/26 04:03:25;;;;;;;;;;;15.20;99.90;;;;;;5101471;28;19952;-88
2021/09/26 04:05:52;;;;;;;;;;;15.20;99.90;;;;;;5102636;28;19941;-89
2021/09/26 04:08:19;;;;;;;;;;;15.20;99.90;;;;;;5104377;28;19938;-88
2021/09/26 04:10:45;;;;;;;;;;;15.20;99.90;;;;;;5102681;28;20009;-88
2021/09/26 04:13:12;;;;;;;;;;;15.20;99.90;;;;;;5099156;28;20401;-88
2021/09/26 04:15:38;;;;;;;;;;;15.20;99.90;;;;;;5102040;28;19938;-88
2021/09/26 04:18:05;;;;;;;;;;;15.20;99.90;;;;;;5101225;28;19942;-87
2021/09/26 04:20:31;;;;;;;;;;;15.20;99.90;;;;;;5099325;28;20319;-88
2021/09/26 04:22:59;;;;;;;;;;;15.20;99.90;;;;;;5102528;28;19961;-88
2021/09/26 04:25:25;;;;;;;;;;;15.20;99.90;;;;;;5104895;28;19947;-89
2021/09/26 04:27:56;;;;;;;;;;;15.20;99.90;;;;;;5105746;28;19947;-88
2021/09/26 04:30:36;;;;;;;;;;;15.20;99.90;;;;;;5122597;22;20040;-88
2021/09/26 04:39:14;;;;;;;;;;;15.20;99.90;;;;;;5097292;28;20392;-89
2021/09/26 04:42:26;;;;;;;;;;;15.40;99.90;;;;;;5097166;28;19983;-89
2021/09/26 04:45:33;;;;;;;;;;;;;;;;;;;;;
2021/09/26 04:48:15;;;;;;;;;;;15.40;99.90;;;;;;5075319;28;20029;-90
2021/09/26 04:53:34;;;;;;;;;;;14.30;99.90;;;;;;5084365;28;19938;-90
2021/09/26 04:59:07;;;;;;;;;;;16.40;99.90;;;;;;5096207;28;19948;-89
2021/09/26 05:08:01;;;;;;;;;;;16.10;99.90;;;;;;5065132;28;19936;-89
2021/09/26 05:19:28;;;;;;;;;;;15.30;99.90;;;;;;5006627;28;19953;-89
2021/09/26 05:22:01;;;;;;;;;;;15.10;99.90;;;;;;5036025;28;19946;-89
2021/09/26 05:30:46;;;;;;;;;;;15.20;99.90;;;;;;5013135;28;20006;-89
2021/09/26 05:33:24;;;;;;;;;;;15.50;99.90;;;;;;5014469;28;20436;-90
2021/09/26 05:36:11;;;;;;;;;;;14.80;99.90;;;;;;5014218;28;19943;-89
2021/09/26 05:41:36;;;;;;;;;;;15.30;99.90;;;;;;5033802;28;19957;-89
2021/09/26 05:44:20;;;;;;;;;;;16.40;99.90;;;;;;5100857;28;19936;-89
2021/09/26 05:47:14;;;;;;;;;;;16.50;99.90;;;;;;5119204;28;19928;-89
2021/09/26 05:53:08;;;;;;;;;;;15.60;99.90;;;;;;3212056;26;19978;-89
2021/09/26 05:55:44;;;;;;;;;;;15.80;99.90;;;;;;5061915;28;19970;-89
2021/09/26 06:01:32;;;;;;;;;;;15.50;99.90;;;;;;5073355;28;20015;-90
2021/09/26 06:07:10;;;;;;;;;;;15.30;99.90;;;;;;5073185;28;20332;-89
2021/09/26 06:12:42;;;;;;;;;;;15.80;99.90;;;;;;5140838;22;20055;-90
2021/09/26 06:18:20;;;;;;;;;;;15.90;99.90;;;;;;5229578;22;20435;-90
2021/09/26 06:21:01;;;;;;;;;;;15.60;99.90;;;;;;5103522;28;20005;-90
2021/09/26 06:23:41;;;;;;;;;;;17.70;99.90;;;;;;5299190;22;19955;-87
2021/09/26 06:26:18;;;;;;;;;;;15.80;99.90;;;;;;5095628;28;19946;-90
2021/09/26 06:32:19;;;;;;;;;;;15.90;99.90;;;;;;5110702;28;19993;-90
2021/09/26 06:35:28;;;;;;;;;;;15.90;99.90;;;;;;5096992;28;20309;-90
2021/09/26 06:38:17;;;;;;;;;;;16.00;99.90;;;;;;5062637;28;19998;-89
2021/09/26 06:49:29;;;;;;;;;;;16.20;99.90;;;;;;5088052;28;19940;-89
2021/09/26 07:01:13;;;;;;;;;;;;;;;;;;;;;
2021/09/26 07:04:13;;;;;;;;;;;16.00;99.90;;;;;;5111646;28;19956;-88
2021/09/26 07:06:59;;;;;;;;;;;17.80;99.90;;;;;;5098984;28;19939;-89
2021/09/26 07:09:49;;;;;;;;;;;16.50;99.90;;;;;;5107668;28;20109;-89
2021/09/26 07:12:22;;;;;;;;;;;17.20;99.90;;;;;;5111684;28;19932;-89
2021/09/26 07:15:14;;;;;;;;;;;16.20;99.90;;;;;;5114580;28;19940;-89
2021/09/26 07:17:56;;;;;;;;;;;16.50;99.90;;;;;;5115465;28;19944;-90
2021/09/26 07:20:29;;;;;;;;;;;16.50;99.90;;;;;;5115788;28;19967;-89
2021/09/26 07:25:55;;;;;;;;;;;16.80;99.90;;;;;;5075466;28;20400;-89
2021/09/26 07:28:31;;;;;;;;;;;16.70;99.90;;;;;;5105315;28;19978;-89
2021/09/26 07:31:15;;;;;;;;;;;16.90;99.90;;;;;;5099118;28;19968;-90
2021/09/26 07:34:19;;;;;;;;;;;16.90;99.90;;;;;;5102820;28;19983;-90
2021/09/26 07:39:53;;;;;;;;;;;17.10;99.90;;;;;;5109245;28;20458;-89
2021/09/26 07:42:32;;;;;;;;;;;17.30;99.90;;;;;;5120290;28;19942;-91
2021/09/26 07:48:14;;;;;;;;;;;;;;;;;;;;;
2021/09/26 07:51:16;;;;;;;;;;;17.30;99.90;;;;;;5039599;28;19949;-90
2021/09/26 07:53:59;;;;;;;;;;;17.60;99.90;;;;;;5038243;28;19956;-88
2021/09/26 07:56:43;;;;;;;;;;;17.60;99.90;;;;;;5103930;28;19929;-90
2021/09/26 07:59:13;;;;;;;;;;;17.80;99.90;;;;;;5103743;28;20006;-90
2021/09/26 08:01:49;;;;;;;;;;;20.10;99.90;;;;;;5100348;28;19959;-90
2021/09/26 08:04:18;;;;;;;;;;;19.10;99.90;;;;;;5104308;28;19955;-90
2021/09/26 08:06:54;;;;;;;;;;;18.80;99.90;;;;;;5119312;28;19938;-89
2021/09/26 08:09:42;;;;;;;;;;;19.70;99.90;;;;;;5120264;28;19954;-89
2021/09/26 08:12:42;;;;;;;;;;;18.00;99.90;;;;;;5119651;28;19998;-90
2021/09/26 08:15:10;;;;;;;;;;;17.90;99.90;;;;;;5036136;28;20003;-90
2021/09/26 08:17:44;;;;;;;;;;;18.00;99.90;;;;;;5105043;28;19942;-90
2021/09/26 08:20:30;;;;;;;;;;;17.80;99.90;;;;;;5101879;28;19958;-90
2021/09/26 08:23:12;;;;;;;;;;;18.70;99.90;;;;;;5101161;28;19948;-90
2021/09/26 08:25:42;;;;;;;;;;;18.20;99.90;;;;;;5107944;28;19938;-90
2021/09/26 08:30:58;;;;;;;;;;;18.40;99.90;;;;;;4180001;26;19946;-90
2021/09/26 08:33:42;;;;;;;;;;;18.50;99.90;;;;;;5087909;28;19941;-90
2021/09/26 08:39:15;;;;;;;;;;;18.50;99.90;;;;;;5089988;28;19976;-89
2021/09/26 08:42:08;;;;;;;;;;;18.30;99.90;;;;;;5100437;28;19996;-88
2021/09/26 08:44:45;;;;;;;;;;;17.80;99.90;;;;;;5099909;28;19988;-88
2021/09/26 08:47:22;;;;;;;;;;;18.80;99.90;;;;;;5093539;28;19944;-88
2021/09/26 08:52:36;;;;;;;;;;;18.90;99.90;;;;;;5065551;28;20372;-89
2021/09/26 08:55:11;;;;;;;;;;;18.50;99.90;;;;;;5082470;28;19992;-89
2021/09/26 08:57:47;;;;;;;;;;;17.40;99.90;;;;;;5082645;28;20044;-89
2021/09/26 09:00:17;;;;;;;;;;;19.20;99.90;;;;;;5083648;28;19962;-90
2021/09/26 09:02:57;;;;;;;;;;;19.10;99.90;;;;;;5080969;28;19953;-90
2021/09/26 09:05:45;;;;;;;;;;;;;;;;;;;;;
2021/09/26 09:08:30;;;;;;;;;;;19.10;99.90;;;;;;5081012;28;19941;-90
2021/09/26 09:11:21;;;;;;;;;;;19.30;99.90;;;;;;5081713;28;19994;-89
2021/09/26 09:14:02;;;;;;;;;;;19.30;99.90;;;;;;5089223;28;19944;-90
2021/09/26 09:16:59;;;;;;;;;;;19.40;99.90;;;;;;5087565;28;19946;-89
2021/09/26 09:19:39;;;;;;;;;;;19.30;99.90;;;;;;5086610;28;19940;-90
2021/09/26 09:25:00;;;;;;;;;;;19.50;99.90;;;;;;5088049;28;19972;-90
2021/09/26 09:27:36;;;;;;;;;;;19.60;99.90;;;;;;5086282;28;19944;-90
2021/09/26 09:30:40;;;;;;;;;;;19.60;99.90;;;;;;5084921;28;20016;-89
2021/09/26 09:33:30;;;;;;;;;;;19.70;99.90;;;;;;5088779;28;20355;-90
2021/09/26 09:36:12;;;;;;;;;;;19.70;99.90;;;;;;5083739;28;19940;-90
2021/09/26 09:38:51;;;;;;;;;;;19.80;99.90;;;;;;5082396;28;19947;-90
2021/09/26 09:41:38;;;;;;;;;;;21.00;99.90;;;;;;5089244;28;19964;-90
2021/09/26 09:44:23;;;;;;;;;;;21.10;99.90;;;;;;5096840;28;20023;-89
2021/09/26 09:50:00;;;;;;;;;;;20.30;99.90;;;;;;5077983;28;20019;-90
2021/09/26 09:52:54;;;;;;;;;;;20.00;99.90;;;;;;5083731;28;19938;-90
2021/09/26 09:55:29;;;;;;;;;;;20.00;99.90;;;;;;5080333;28;19943;-90
2021/09/26 10:01:12;;;;;;;;;;;19.80;99.90;;;;;;5078986;28;20039;-90
2021/09/26 10:03:55;;;;;;;;;;;19.60;99.90;;;;;;5078566;28;19960;-91
2021/09/26 10:06:35;;;;;;;;;;;20.20;99.90;;;;;;5078181;28;19940;-90
2021/09/26 10:09:23;;;;;;;;;;;20.00;99.90;;;;;;5079209;28;19996;-90
2021/09/26 10:12:10;;;;;;;;;;;20.20;99.90;;;;;;5096732;28;20010;-90
2021/09/26 10:14:46;;;;;;;;;;;20.30;99.90;;;;;;5098051;28;19997;-90
2021/09/26 10:17:25;;;;;;;;;;;21.60;99.90;;;;;;5096421;28;19959;-90
2021/09/26 10:20:03;;;;;;;;;;;20.50;99.90;;;;;;5082128;28;19964;-90
2021/09/26 10:25:16;;;;;;;;;;;20.40;99.90;;;;;;5080631;28;19962;-91
2021/09/26 10:28:07;;;;;;;;;;;20.90;99.90;;;;;;5079293;28;19958;-90
2021/09/26 10:33:19;;;;;;;;;;;21.00;99.90;;;;;;5078544;28;19936;-90
2021/09/26 10:35:58;;;;;;;;;;;21.10;99.90;;;;;;5078435;28;19943;-89
2021/09/26 10:38:35;;;;;;;;;;;21.00;99.90;;;;;;5081124;28;19942;-89
2021/09/26 10:41:27;;;;;;;;;;;20.30;99.90;;;;;;5079891;28;20020;-89
2021/09/26 10:44:17;;;;;;;;;;;21.10;99.90;;;;;;5079404;28;19990;-89
2021/09/26 10:47:09;;;;;;;;;;;19.50;99.90;;;;;;5076980;28;20005;-89
2021/09/26 10:50:00;;;;;;;;;;;21.10;99.90;;;;;;5078568;28;20029;-89
2021/09/26 10:52:30;;;;;;;;;;;21.20;99.90;;;;;;5079464;28;19939;-89
2021/09/26 10:58:20;;;;;;;;;;;21.10;99.90;;;;;;5075003;28;19939;-89
2021/09/26 11:00:57;;;;;;;;;;;21.40;99.90;;;;;;5014403;28;19961;-89
2021/09/26 11:06:37;;;;;;;;;;;21.00;99.90;;;;;;5080578;28;19975;-90
2021/09/26 11:09:24;;;;;;;;;;;21.50;99.90;;;;;;5085578;28;19938;-90
2021/09/26 11:11:56;;;;;;;;;;;21.30;99.90;;;;;;5097841;28;19938;-89
2021/09/26 11:14:39;;;;;;;;;;;21.40;99.90;;;;;;5100727;28;19998;-88
2021/09/26 11:17:14;;;;;;;;;;;21.40;99.90;;;;;;5099109;28;19950;-90
2021/09/26 11:22:50;;;;;;;;;;;21.40;99.90;;;;;;5057959;28;20341;-90
2021/09/26 11:28:36;;;;;;;;;;;23.00;99.90;;;;;;5090574;28;20034;-90
2021/09/26 11:31:26;;;;;;;;;;;21.70;99.90;;;;;;5073679;28;19971;-89
2021/09/26 11:42:23;;;;;;;;;;;21.70;99.90;;;;;;5253021;22;19955;-89
2021/09/26 11:50:57;;;;;;;;;;;21.50;99.90;;;;;;5112655;28;19940;-89
2021/09/26 11:53:44;;;;;;;;;;;20.70;99.90;;;;;;5120193;28;19946;-90
2021/09/26 12:05:13;;;;;;;;;;;23.20;99.90;;;;;;5097087;28;19955;-89
2021/09/26 12:10:57;;;;;;;;;;;22.30;99.90;;;;;;5095393;28;19945;-90
2021/09/26 12:13:59;;;;;;;;;;;23.60;99.90;;;;;;5104913;28;19940;-90
2021/09/26 12:17:14;;;;;;;;;;;;;;;;;;;;;
2021/09/26 12:20:10;;;;;;;;;;;;;;;;;;;;;
2021/09/26 12:23:10;;;;;;;;;;;22.40;99.90;;;;;;5104148;28;19952;-90
2021/09/26 12:29:01;;;;;;;;;;;22.40;99.90;;;;;;5103488;28;19940;-91
2021/09/26 12:31:46;;;;;;;;;;;22.60;99.90;;;;;;5085903;28;19967;-91
2021/09/26 12:46:22;;;;;;;;;;;23.90;99.90;;;;;;5103445;28;19959;-91
2021/09/26 12:54:58;;;;;;;;;;;22.50;99.90;;;;;;5117469;28;20321;-90
2021/09/26 13:59:54;;;;;;;;;;;22.50;99.90;;;;;;4958776;29;19942;-91
2021/09/26 14:03:01;;;;;;;;;;;22.50;99.90;;;;;;4967044;29;19950;-90
2021/09/26 14:05:35;;;;;;;;;;;22.70;99.90;;;;;;5024822;28;20028;-91
2021/09/26 14:08:26;;;;;;;;;;;;;;;;;;;;;
2021/09/26 14:11:06;;;;;;;;;;;23.20;99.90;;;;;;5064598;28;19955;-90
2021/09/26 14:13:40;;;;;;;;;;;23.00;99.90;;;;;;5066200;28;19938;-90
2021/09/26 14:16:34;;;;;;;;;;;22.70;99.90;;;;;;5070664;28;20352;-90
2021/09/26 14:24:49;;;;;;;;;;;24.10;99.90;;;;;;5063364;28;19954;-91
2021/09/26 14:28:00;;;;;;;;;;;22.50;99.90;;;;;;5064879;28;19939;-90
2021/09/26 14:36:36;;;;;;;;;;;22.50;99.90;;;;;;5059320;28;19940;-90
2021/09/26 14:45:27;;;;;;;;;;;21.90;99.90;;;;;;5067355;28;19981;-91
2021/09/26 14:48:45;;;;;;;;;;;22.50;99.90;;;;;;5070143;28;19946;-91
2021/09/26 14:59:52;;;;;;;;;;;22.50;99.90;;;;;;5072787;28;19938;-90
2021/09/26 15:05:27;;;;;;;;;;;22.60;99.90;;;;;;5069601;28;20010;-91
2021/09/26 15:08:13;;;;;;;;;;;23.70;99.90;;;;;;5069945;28;19967;-91
2021/09/26 15:10:51;;;;;;;;;;;23.20;99.90;;;;;;5073320;28;20003;-90
2021/09/26 15:13:19;;;;;;;;;;;23.80;99.90;;;;;;5073920;28;19939;-91
2021/09/26 15:15:47;;;;;;;;;;;22.20;99.90;;;;;;5073625;28;19948;-91
2021/09/26 15:18:13;;;;;;;;;;;22.70;99.90;;;;;;5071866;28;19943;-90
2021/09/26 15:20:51;;;;;;;;;;;22.20;99.90;;;;;;5073865;28;20026;-91
2021/09/26 15:23:22;;;;;;;;;;;22.40;99.90;;;;;;5070236;28;19938;-90
2021/09/26 15:25:49;;;;;;;;;;;23.30;99.90;;;;;;5079447;28;19964;-91
2021/09/26 15:28:32;;;;;;;;;;;24.10;99.90;;;;;;5081996;28;19983;-90
2021/09/26 15:31:01;;;;;;;;;;;22.50;99.90;;;;;;5084543;28;19942;-89
2021/09/26 15:33:39;;;;;;;;;;;22.40;99.90;;;;;;5083166;28;19951;-90
2021/09/26 15:36:23;;;;;;;;;;;22.20;99.90;;;;;;5078934;28;19940;-91
2021/09/26 16:15:45;;;;;;;;;;;21.80;99.90;;;;;;4404711;26;19967;-94
2021/09/26 16:26:42;;;;;;;;;;;21.60;99.90;;;;;;5198574;22;19964;-91
2021/09/26 16:45:11;;;;;;;;;;;21.30;99.90;;;;;;5977332;22;19956;-86
2021/09/26 16:47:38;;;;;;;;;;;21.20;99.90;;;;;;5084639;28;19945;-87
2021/09/26 16:50:06;;;;;;;;;;;21.20;99.90;;;;;;5086613;28;20395;-86
2021/09/26 16:52:33;;;;;;;;;;;21.10;99.90;;;;;;5085156;28;20323;-86
2021/09/26 16:54:59;;;;;;;;;;;21.10;99.90;;;;;;5088562;28;19940;-86
2021/09/26 16:57:25;;;;;;;;;;;21.00;99.90;;;;;;5090781;28;19946;-85
2021/09/26 16:59:52;;;;;;;;;;;21.00;99.90;;;;;;5091318;28;19927;-86
2021/09/26 17:02:20;;;;;;;;;;;20.90;99.90;;;;;;5088306;28;19947;-85
2021/09/26 17:04:46;;;;;;;;;;;20.90;99.90;;;;;;5087122;28;19968;-86
2021/09/26 17:07:17;;;;;;;;;;;20.90;99.90;;;;;;5087260;28;20000;-86
2021/09/26 17:09:43;;;;;;;;;;;20.90;99.90;;;;;;5088909;28;19951;-86
2021/09/26 17:12:10;;;;;;;;;;;20.80;99.90;;;;;;5088463;28;20010;-86
2021/09/26 17:14:36;;;;;;;;;;;20.80;99.90;;;;;;5093038;28;20457;-85
2021/09/26 17:17:03;;;;;;;;;;;20.70;99.90;;;;;;5084164;28;20009;-86
2021/09/26 17:19:31;;;;;;;;;;;20.70;99.90;;;;;;5081824;28;20016;-85
2021/09/26 17:21:57;;;;;;;;;;;20.60;99.90;;;;;;5079858;28;19941;-86
2021/09/26 17:24:24;;;;;;;;;;;20.60;99.90;;;;;;5080963;28;19954;-86
2021/09/26 17:26:51;;;;;;;;;;;20.50;99.90;;;;;;5081590;28;19960;-86
2021/09/26 17:29:17;;;;;;;;;;;20.50;99.90;;;;;;5082251;28;19990;-86
2021/09/26 17:31:43;;;;;;;;;;;20.50;99.90;;;;;;5083729;28;19992;-86
2021/09/26 17:34:10;;;;;;;;;;;20.40;99.90;;;;;;5082600;28;19988;-86
2021/09/26 17:36:38;;;;;;;;;;;20.40;99.90;;;;;;5083127;28;20486;-86
2021/09/26 17:39:05;;;;;;;;;;;20.30;99.90;;;;;;5083702;28;19949;-85
2021/09/26 17:41:31;;;;;;;;;;;20.30;99.90;;;;;;5087558;28;19950;-85
2021/09/26 17:43:58;;;;;;;;;;;20.30;99.90;;;;;;5089792;28;19948;-85
2021/09/26 17:46:25;;;;;;;;;;;20.30;99.90;;;;;;5086057;28;19963;-85
2021/09/26 17:48:52;;;;;;;;;;;20.30;99.90;;;;;;5088459;28;20001;-87
2021/09/26 17:51:26;;;;;;;;;;;20.20;99.90;;;;;;5091173;28;19945;-86
2021/09/26 17:53:54;;;;;;;;;;;20.20;99.90;;;;;;5082526;28;19994;-86
2021/09/26 17:56:21;;;;;;;;;;;20.20;99.90;;;;;;5083640;28;20324;-86
2021/09/26 17:58:48;;;;;;;;;;;20.20;99.90;;;;;;5082386;28;20002;-86
2021/09/26 18:01:16;;;;;;;;;;;20.10;99.90;;;;;;5082701;28;19972;-86
2021/09/26 18:03:44;;;;;;;;;;;20.10;99.90;;;;;;5080206;28;20361;-85
2021/09/26 18:06:12;;;;;;;;;;;20.10;99.90;;;;;;5080351;28;20017;-86
2021/09/26 18:08:38;;;;;;;;;;;20.10;99.90;;;;;;5080020;28;20402;-86
2021/09/26 18:11:06;;;;;;;;;;;20.00;99.90;;;;;;5081117;28;20350;-85
2021/09/26 18:13:34;;;;;;;;;;;20.00;99.90;;;;;;5095216;28;19964;-85
2021/09/26 18:16:02;;;;;;;;;;;20.00;99.90;;;;;;5096213;28;19964;-85
2021/09/26 18:18:28;;;;;;;;;;;20.00;99.90;;;;;;5096680;28;19966;-85
2021/09/26 18:20:56;;;;;;;;;;;19.90;99.90;;;;;;5082108;28;19999;-86
2021/09/26 18:23:24;;;;;;;;;;;19.90;99.90;;;;;;5077238;28;19942;-86
2021/09/26 18:25:50;;;;;;;;;;;19.80;99.90;;;;;;5078283;28;19959;-86
2021/09/26 18:28:18;;;;;;;;;;;19.80;99.90;;;;;;5077437;28;20368;-86
2021/09/26 18:30:46;;;;;;;;;;;19.80;99.90;;;;;;5081684;28;19999;-86
2021/09/26 18:33:14;;;;;;;;;;;19.80;99.90;;;;;;5090348;28;19942;-86
2021/09/26 18:35:40;;;;;;;;;;;19.80;99.90;;;;;;5090215;28;19960;-86
2021/09/26 18:38:07;;;;;;;;;;;19.70;99.90;;;;;;5094925;28;19931;-85
2021/09/26 18:40:34;;;;;;;;;;;19.70;99.90;;;;;;5087629;28;19951;-85
2021/09/26 18:43:00;;;;;;;;;;;19.70;99.90;;;;;;5080583;28;19943;-85
2021/09/26 18:45:31;;;;;;;;;;;19.70;99.90;;;;;;5079511;28;20298;-86
2021/09/26 18:47:57;;;;;;;;;;;19.70;99.90;;;;;;5079269;28;19993;-85
2021/09/26 18:50:24;;;;;;;;;;;19.70;99.90;;;;;;5079381;28;19950;-85
2021/09/26 18:52:50;;;;;;;;;;;19.70;99.90;;;;;;5079382;28;19949;-86
2021/09/26 18:55:17;;;;;;;;;;;19.60;99.90;;;;;;5078238;28;19973;-85
2021/09/26 18:57:44;;;;;;;;;;;19.60;99.90;;;;;;5078379;28;19968;-85
2021/09/26 19:00:12;;;;;;;;;;;19.60;99.90;;;;;;5078682;28;19996;-86
2021/09/26 19:02:40;;;;;;;;;;;19.50;99.90;;;;;;5077282;28;19943;-85
2021/09/26 19:05:07;;;;;;;;;;;19.60;99.90;;;;;;5076535;28;20027;-87
2021/09/26 19:07:34;;;;;;;;;;;19.50;99.90;;;;;;5077424;28;19994;-86
2021/09/26 19:10:00;;;;;;;;;;;19.50;99.90;;;;;;5078528;28;20399;-85
2021/09/26 19:12:27;;;;;;;;;;;19.40;99.90;;;;;;5080615;28;19943;-85
2021/09/26 19:14:53;;;;;;;;;;;19.40;99.90;;;;;;5078036;28;19987;-85
2021/09/26 19:17:20;;;;;;;;;;;19.40;99.90;;;;;;5079002;28;19941;-85
2021/09/26 19:19:48;;;;;;;;;;;19.30;99.90;;;;;;5081252;28;19943;-86
2021/09/26 19:22:15;;;;;;;;;;;19.30;99.90;;;;;;5086837;28;19948;-86
2021/09/26 19:24:41;;;;;;;;;;;19.20;99.90;;;;;;5082823;28;20000;-85
2021/09/26 19:27:08;;;;;;;;;;;19.20;99.90;;;;;;5080932;28;19960;-85
2021/09/26 19:29:34;;;;;;;;;;;19.20;99.90;;;;;;5081188;28;20290;-85
2021/09/26 19:32:01;;;;;;;;;;;19.20;99.90;;;;;;5096783;28;19931;-85
2021/09/26 19:34:28;;;;;;;;;;;19.10;99.90;;;;;;5098546;28;19943;-85
2021/09/26 19:36:55;;;;;;;;;;;19.10;99.90;;;;;;5101528;28;19950;-86
2021/09/26 19:39:22;;;;;;;;;;;19.00;99.90;;;;;;5085385;28;20358;-86
2021/09/26 19:41:49;;;;;;;;;;;19.00;99.90;;;;;;5080196;28;20320;-86
2021/09/26 19:44:15;;;;;;;;;;;19.00;99.90;;;;;;5080015;28;19994;-84
2021/09/26 19:46:42;;;;;;;;;;;19.00;99.90;;;;;;5090154;28;20005;-85
2021/09/26 19:49:08;;;;;;;;;;;18.90;99.90;;;;;;5081326;28;20001;-85
2021/09/26 19:51:35;;;;;;;;;;;18.90;99.90;;;;;;5079839;28;19991;-85
2021/09/26 19:54:03;;;;;;;;;;;18.90;99.90;;;;;;5080118;28;19950;-85
2021/09/26 19:56:30;;;;;;;;;;;18.80;99.90;;;;;;5080534;28;19958;-84
2021/09/26 19:58:56;;;;;;;;;;;18.80;99.90;;;;;;5082476;28;19949;-84
2021/09/26 20:01:24;;;;;;;;;;;18.70;99.90;;;;;;5081775;28;19947;-86
2021/09/26 20:03:51;;;;;;;;;;;18.70;99.90;;;;;;5079343;28;19966;-85
2021/09/26 20:06:18;;;;;;;;;;;18.70;99.90;;;;;;5078547;28;20423;-85
2021/09/26 20:08:44;;;;;;;;;;;18.70;99.90;;;;;;5079549;28;20376;-86
2021/09/26 20:11:13;;;;;;;;;;;18.70;99.90;;;;;;5078535;28;19957;-86
2021/09/26 20:13:39;;;;;;;;;;;18.70;99.90;;;;;;5078923;28;19947;-86
2021/09/26 20:16:06;;;;;;;;;;;18.60;99.90;;;;;;5079880;28;20020;-86
2021/09/26 20:18:33;;;;;;;;;;;18.60;99.90;;;;;;5081105;28;19954;-85
2021/09/26 20:21:01;;;;;;;;;;;18.50;99.90;;;;;;5080515;28;19940;-84